sensor_id;sensor_type;location;lat;lon;timestamp;P1;durP1;ratioP1;P2;durP2;ratioP2
32663;SDS011;19847;48.670;9.242;2022-07-24T00:00:09;15.70;;;12.85;;
32663;SDS011;19847;48.670;9.242;2022-07-24T00:03:35;15.37;;;13.73;;
32663;SDS011;19847;48.670;9.242;2022-07-24T00:10:21;15.32;;;12.43;;
32663;SDS011;19847;48.670;9.242;2022-07-24T00:13:43;15.73;;;12.50;;
32663;SDS011;19847;48.670;9.242;2022-07-24T00:17:05;17.08;;;12.23;;
32663;SDS011;19847;48.670;9.242;2022-07-24T00:20:28;19.55;;;12.73;;
32663;SDS011;19847;48.670;9.242;2022-07-24T00:23:50;16.60;;;11.63;;
32663;SDS011;19847;48.670;9.242;2022-07-24T00:27:12;12.52;;;11.23;;
32663;SDS011;19847;48.670;9.242;2022-07-24T00:30:34;14.45;;;10.68;;
32663;SDS011;19847;48.670;9.242;2022-07-24T00:33:56;14.25;;;10.15;;
32663;SDS011;19847;48.670;9.242;2022-07-24T00:37:19;13.35;;;11.32;;
32663;SDS011;19847;48.670;9.242;2022-07-24T00:40:41;16.10;;;12.02;;
32663;SDS011;19847;48.670;9.242;2022-07-24T00:44:04;20.08;;;12.48;;
32663;SDS011;19847;48.670;9.242;2022-07-24T00:47:28;13.80;;;11.52;;
32663;SDS011;19847;48.670;9.242;2022-07-24T00:50:50;13.32;;;11.90;;
32663;SDS011;19847;48.670;9.242;2022-07-24T00:54:14;13.20;;;11.05;;
32663;SDS011;19847;48.670;9.242;2022-07-24T00:57:37;14.40;;;11.60;;
32663;SDS011;19847;48.670;9.242;2022-07-24T01:00:59;15.30;;;12.43;;
32663;SDS011;19847;48.670;9.242;2022-07-24T01:04:21;12.98;;;10.95;;
32663;SDS011;19847;48.670;9.242;2022-07-24T01:07:43;23.95;;;12.07;;
32663;SDS011;19847;48.670;9.242;2022-07-24T01:11:07;15.57;;;11.73;;
32663;SDS011;19847;48.670;9.242;2022-07-24T01:14:33;17.10;;;13.25;;
32663;SDS011;19847;48.670;9.242;2022-07-24T01:17:55;17.92;;;12.55;;
32663;SDS011;19847;48.670;9.242;2022-07-24T01:21:18;16.17;;;12.60;;
32663;SDS011;19847;48.670;9.242;2022-07-24T01:24:41;15.85;;;11.98;;
32663;SDS011;19847;48.670;9.242;2022-07-24T01:28:03;17.17;;;12.90;;
32663;SDS011;19847;48.670;9.242;2022-07-24T01:31:25;15.77;;;12.63;;
32663;SDS011;19847;48.670;9.242;2022-07-24T01:34:47;15.27;;;13.70;;
32663;SDS011;19847;48.670;9.242;2022-07-24T01:38:10;14.25;;;12.15;;
32663;SDS011;19847;48.670;9.242;2022-07-24T01:41:32;17.00;;;13.07;;
32663;SDS011;19847;48.670;9.242;2022-07-24T01:44:54;15.60;;;11.15;;
32663;SDS011;19847;48.670;9.242;2022-07-24T01:48:16;17.25;;;11.82;;
32663;SDS011;19847;48.670;9.242;2022-07-24T01:51:37;14.35;;;12.85;;
32663;SDS011;19847;48.670;9.242;2022-07-24T01:55:01;14.70;;;12.05;;
32663;SDS011;19847;48.670;9.242;2022-07-24T01:58:23;19.05;;;12.60;;
32663;SDS011;19847;48.670;9.242;2022-07-24T02:01:45;18.23;;;12.52;;
32663;SDS011;19847;48.670;9.242;2022-07-24T02:05:07;12.95;;;11.50;;
32663;SDS011;19847;48.670;9.242;2022-07-24T02:08:29;16.58;;;11.50;;
32663;SDS011;19847;48.670;9.242;2022-07-24T02:11:52;14.70;;;13.20;;
32663;SDS011;19847;48.670;9.242;2022-07-24T02:15:14;17.13;;;11.82;;
32663;SDS011;19847;48.670;9.242;2022-07-24T02:18:36;12.88;;;11.25;;
32663;SDS011;19847;48.670;9.242;2022-07-24T02:21:58;13.48;;;11.70;;
32663;SDS011;19847;48.670;9.242;2022-07-24T02:25:20;15.13;;;10.60;;
32663;SDS011;19847;48.670;9.242;2022-07-24T02:28:43;14.50;;;12.40;;
32663;SDS011;19847;48.670;9.242;2022-07-24T02:32:05;13.48;;;10.63;;
32663;SDS011;19847;48.670;9.242;2022-07-24T02:35:27;16.55;;;11.30;;
32663;SDS011;19847;48.670;9.242;2022-07-24T02:38:49;17.85;;;12.55;;
32663;SDS011;19847;48.670;9.242;2022-07-24T02:42:11;13.55;;;11.77;;
32663;SDS011;19847;48.670;9.242;2022-07-24T02:45:35;15.65;;;11.40;;
32663;SDS011;19847;48.670;9.242;2022-07-24T02:48:57;13.63;;;11.52;;
32663;SDS011;19847;48.670;9.242;2022-07-24T02:52:18;12.70;;;10.30;;
32663;SDS011;19847;48.670;9.242;2022-07-24T02:55:40;15.88;;;10.85;;
32663;SDS011;19847;48.670;9.242;2022-07-24T02:59:02;17.00;;;11.23;;
32663;SDS011;19847;48.670;9.242;2022-07-24T03:02:26;15.57;;;11.60;;
32663;SDS011;19847;48.670;9.242;2022-07-24T03:05:48;13.70;;;12.30;;
32663;SDS011;19847;48.670;9.242;2022-07-24T03:09:10;15.32;;;12.85;;
32663;SDS011;19847;48.670;9.242;2022-07-24T03:12:31;14.25;;;11.95;;
32663;SDS011;19847;48.670;9.242;2022-07-24T03:15:53;14.93;;;11.55;;
32663;SDS011;19847;48.670;9.242;2022-07-24T03:19:17;16.17;;;12.88;;
32663;SDS011;19847;48.670;9.242;2022-07-24T03:22:38;15.35;;;13.20;;
32663;SDS011;19847;48.670;9.242;2022-07-24T03:26:00;15.20;;;11.95;;
32663;SDS011;19847;48.670;9.242;2022-07-24T03:29:22;16.50;;;13.32;;
32663;SDS011;19847;48.670;9.242;2022-07-24T03:32:44;15.40;;;12.32;;
32663;SDS011;19847;48.670;9.242;2022-07-24T03:36:08;16.27;;;12.82;;
32663;SDS011;19847;48.670;9.242;2022-07-24T03:39:30;15.07;;;13.57;;
32663;SDS011;19847;48.670;9.242;2022-07-24T03:42:52;15.23;;;12.23;;
32663;SDS011;19847;48.670;9.242;2022-07-24T03:46:14;13.98;;;12.25;;
32663;SDS011;19847;48.670;9.242;2022-07-24T03:49:36;17.02;;;12.88;;
32663;SDS011;19847;48.670;9.242;2022-07-24T03:52:59;15.85;;;12.80;;
32663;SDS011;19847;48.670;9.242;2022-07-24T03:56:21;15.60;;;13.45;;
32663;SDS011;19847;48.670;9.242;2022-07-24T03:59:46;18.27;;;14.10;;
32663;SDS011;19847;48.670;9.242;2022-07-24T04:03:08;16.02;;;14.18;;
32663;SDS011;19847;48.670;9.242;2022-07-24T04:06:30;22.42;;;15.73;;
32663;SDS011;19847;48.670;9.242;2022-07-24T04:09:53;22.17;;;16.40;;
32663;SDS011;19847;48.670;9.242;2022-07-24T04:13:15;25.17;;;18.23;;
32663;SDS011;19847;48.670;9.242;2022-07-24T04:16:37;19.38;;;16.20;;
32663;SDS011;19847;48.670;9.242;2022-07-24T04:20:01;20.33;;;15.07;;
32663;SDS011;19847;48.670;9.242;2022-07-24T04:23:23;17.33;;;15.45;;
32663;SDS011;19847;48.670;9.242;2022-07-24T04:26:47;18.10;;;15.38;;
32663;SDS011;19847;48.670;9.242;2022-07-24T04:30:09;16.05;;;14.02;;
32663;SDS011;19847;48.670;9.242;2022-07-24T04:33:32;16.63;;;14.63;;
32663;SDS011;19847;48.670;9.242;2022-07-24T04:36:54;19.38;;;14.15;;
32663;SDS011;19847;48.670;9.242;2022-07-24T04:40:18;15.57;;;12.98;;
32663;SDS011;19847;48.670;9.242;2022-07-24T04:43:41;13.07;;;11.68;;
32663;SDS011;19847;48.670;9.242;2022-07-24T04:47:03;13.68;;;11.63;;
32663;SDS011;19847;48.670;9.242;2022-07-24T04:50:25;14.23;;;11.27;;
32663;SDS011;19847;48.670;9.242;2022-07-24T04:53:48;16.98;;;14.55;;
32663;SDS011;19847;48.670;9.242;2022-07-24T04:57:10;18.30;;;14.90;;
32663;SDS011;19847;48.670;9.242;2022-07-24T05:00:35;17.40;;;15.63;;
32663;SDS011;19847;48.670;9.242;2022-07-24T05:03:59;17.77;;;13.85;;
32663;SDS011;19847;48.670;9.242;2022-07-24T05:07:21;23.20;;;14.73;;
32663;SDS011;19847;48.670;9.242;2022-07-24T05:10:43;18.58;;;14.50;;
32663;SDS011;19847;48.670;9.242;2022-07-24T05:14:06;17.42;;;12.85;;
32663;SDS011;19847;48.670;9.242;2022-07-24T05:17:34;12.65;;;11.35;;
32663;SDS011;19847;48.670;9.242;2022-07-24T05:21:01;12.35;;;9.77;;
32663;SDS011;19847;48.670;9.242;2022-07-24T05:24:25;9.52;;;8.63;;
32663;SDS011;19847;48.670;9.242;2022-07-24T05:27:47;9.32;;;7.70;;
32663;SDS011;19847;48.670;9.242;2022-07-24T05:31:09;11.93;;;8.73;;
32663;SDS011;19847;48.670;9.242;2022-07-24T05:34:32;19.75;;;9.38;;
32663;SDS011;19847;48.670;9.242;2022-07-24T05:38:00;12.55;;;7.63;;
32663;SDS011;19847;48.670;9.242;2022-07-24T05:41:22;9.80;;;6.75;;
32663;SDS011;19847;48.670;9.242;2022-07-24T05:44:44;10.15;;;7.32;;
32663;SDS011;19847;48.670;9.242;2022-07-24T05:48:06;8.75;;;7.63;;
32663;SDS011;19847;48.670;9.242;2022-07-24T05:51:30;9.75;;;7.07;;
32663;SDS011;19847;48.670;9.242;2022-07-24T05:54:52;8.13;;;7.32;;
32663;SDS011;19847;48.670;9.242;2022-07-24T05:58:15;8.93;;;6.82;;
32663;SDS011;19847;48.670;9.242;2022-07-24T06:01:37;8.10;;;7.30;;
32663;SDS011;19847;48.670;9.242;2022-07-24T06:04:59;10.98;;;7.25;;
32663;SDS011;19847;48.670;9.242;2022-07-24T06:08:22;8.85;;;6.50;;
32663;SDS011;19847;48.670;9.242;2022-07-24T06:11:44;18.38;;;7.10;;
32663;SDS011;19847;48.670;9.242;2022-07-24T06:15:07;13.63;;;7.18;;
32663;SDS011;19847;48.670;9.242;2022-07-24T06:18:29;6.95;;;5.93;;
32663;SDS011;19847;48.670;9.242;2022-07-24T06:21:51;8.70;;;6.10;;
32663;SDS011;19847;48.670;9.242;2022-07-24T06:25:15;12.55;;;6.70;;
32663;SDS011;19847;48.670;9.242;2022-07-24T06:28:37;11.05;;;6.10;;
32663;SDS011;19847;48.670;9.242;2022-07-24T06:31:59;9.55;;;6.03;;
32663;SDS011;19847;48.670;9.242;2022-07-24T06:35:21;13.48;;;6.60;;
32663;SDS011;19847;48.670;9.242;2022-07-24T06:38:43;13.45;;;6.80;;
32663;SDS011;19847;48.670;9.242;2022-07-24T06:42:06;9.63;;;6.18;;
32663;SDS011;19847;48.670;9.242;2022-07-24T06:45:30;6.20;;;5.63;;
32663;SDS011;19847;48.670;9.242;2022-07-24T06:48:52;7.97;;;5.72;;
32663;SDS011;19847;48.670;9.242;2022-07-24T06:52:14;5.55;;;4.65;;
32663;SDS011;19847;48.670;9.242;2022-07-24T06:55:35;7.75;;;6.10;;
32663;SDS011;19847;48.670;9.242;2022-07-24T06:58:58;6.00;;;5.15;;
32663;SDS011;19847;48.670;9.242;2022-07-24T07:02:21;6.70;;;6.10;;
32663;SDS011;19847;48.670;9.242;2022-07-24T07:05:43;5.78;;;5.28;;
32663;SDS011;19847;48.670;9.242;2022-07-24T07:09:05;6.45;;;5.30;;
32663;SDS011;19847;48.670;9.242;2022-07-24T07:12:28;7.43;;;5.10;;
32663;SDS011;19847;48.670;9.242;2022-07-24T07:15:51;5.97;;;4.85;;
32663;SDS011;19847;48.670;9.242;2022-07-24T07:19:13;7.45;;;4.57;;
32663;SDS011;19847;48.670;9.242;2022-07-24T07:22:35;16.45;;;5.50;;
32663;SDS011;19847;48.670;9.242;2022-07-24T07:25:56;8.63;;;5.55;;
32663;SDS011;19847;48.670;9.242;2022-07-24T07:29:18;5.00;;;4.30;;
32663;SDS011;19847;48.670;9.242;2022-07-24T07:32:42;5.30;;;4.55;;
32663;SDS011;19847;48.670;9.242;2022-07-24T07:36:04;7.10;;;4.22;;
32663;SDS011;19847;48.670;9.242;2022-07-24T07:39:26;6.88;;;4.85;;
32663;SDS011;19847;48.670;9.242;2022-07-24T07:42:48;7.03;;;4.38;;
32663;SDS011;19847;48.670;9.242;2022-07-24T07:46:09;5.80;;;4.15;;
32663;SDS011;19847;48.670;9.242;2022-07-24T07:49:33;4.50;;;4.10;;
32663;SDS011;19847;48.670;9.242;2022-07-24T07:52:55;5.53;;;4.45;;
32663;SDS011;19847;48.670;9.242;2022-07-24T07:56:17;4.53;;;4.13;;
32663;SDS011;19847;48.670;9.242;2022-07-24T07:59:41;6.20;;;4.32;;
32663;SDS011;19847;48.670;9.242;2022-07-24T08:03:03;6.90;;;4.43;;
32663;SDS011;19847;48.670;9.242;2022-07-24T08:06:26;4.93;;;3.75;;
32663;SDS011;19847;48.670;9.242;2022-07-24T08:09:50;4.97;;;4.50;;
32663;SDS011;19847;48.670;9.242;2022-07-24T08:13:12;4.95;;;4.55;;
32663;SDS011;19847;48.670;9.242;2022-07-24T08:16:34;5.05;;;4.50;;
32663;SDS011;19847;48.670;9.242;2022-07-24T08:19:56;5.30;;;4.80;;
32663;SDS011;19847;48.670;9.242;2022-07-24T08:23:19;9.00;;;5.10;;
32663;SDS011;19847;48.670;9.242;2022-07-24T08:26:41;5.95;;;4.25;;
32663;SDS011;19847;48.670;9.242;2022-07-24T08:30:03;6.18;;;4.30;;
32663;SDS011;19847;48.670;9.242;2022-07-24T08:33:26;7.05;;;4.55;;
32663;SDS011;19847;48.670;9.242;2022-07-24T08:36:48;4.78;;;4.30;;
32663;SDS011;19847;48.670;9.242;2022-07-24T08:40:11;6.72;;;4.40;;
32663;SDS011;19847;48.670;9.242;2022-07-24T08:43:35;6.82;;;4.85;;
32663;SDS011;19847;48.670;9.242;2022-07-24T08:46:57;6.32;;;4.38;;
32663;SDS011;19847;48.670;9.242;2022-07-24T08:50:20;4.97;;;4.03;;
32663;SDS011;19847;48.670;9.242;2022-07-24T08:53:43;5.18;;;4.50;;
32663;SDS011;19847;48.670;9.242;2022-07-24T08:57:07;8.88;;;4.50;;
32663;SDS011;19847;48.670;9.242;2022-07-24T09:00:29;6.47;;;4.03;;
32663;SDS011;19847;48.670;9.242;2022-07-24T09:03:52;14.68;;;6.45;;
32663;SDS011;19847;48.670;9.242;2022-07-24T09:07:15;5.00;;;4.38;;
32663;SDS011;19847;48.670;9.242;2022-07-24T09:10:38;4.95;;;4.55;;
32663;SDS011;19847;48.670;9.242;2022-07-24T09:14:01;10.15;;;4.93;;
32663;SDS011;19847;48.670;9.242;2022-07-24T09:17:23;6.78;;;4.57;;
32663;SDS011;19847;48.670;9.242;2022-07-24T09:20:47;7.40;;;5.25;;
32663;SDS011;19847;48.670;9.242;2022-07-24T09:24:12;14.25;;;4.35;;
32663;SDS011;19847;48.670;9.242;2022-07-24T09:27:36;4.72;;;4.28;;
32663;SDS011;19847;48.670;9.242;2022-07-24T09:31:02;5.13;;;4.03;;
32663;SDS011;19847;48.670;9.242;2022-07-24T09:34:25;6.07;;;4.32;;
32663;SDS011;19847;48.670;9.242;2022-07-24T09:37:54;6.85;;;4.88;;
32663;SDS011;19847;48.670;9.242;2022-07-24T09:41:20;5.07;;;4.55;;
32663;SDS011;19847;48.670;9.242;2022-07-24T09:44:43;5.25;;;4.65;;
32663;SDS011;19847;48.670;9.242;2022-07-24T09:48:06;11.95;;;4.93;;
32663;SDS011;19847;48.670;9.242;2022-07-24T09:51:31;6.88;;;4.70;;
32663;SDS011;19847;48.670;9.242;2022-07-24T09:54:53;7.57;;;4.97;;
32663;SDS011;19847;48.670;9.242;2022-07-24T09:58:16;8.40;;;5.03;;
32663;SDS011;19847;48.670;9.242;2022-07-24T10:01:38;8.98;;;4.63;;
32663;SDS011;19847;48.670;9.242;2022-07-24T10:05:08;4.88;;;4.43;;
32663;SDS011;19847;48.670;9.242;2022-07-24T10:08:42;7.82;;;4.70;;
32663;SDS011;19847;48.670;9.242;2022-07-24T10:12:04;12.05;;;4.32;;
32663;SDS011;19847;48.670;9.242;2022-07-24T10:15:31;5.45;;;4.65;;
32663;SDS011;19847;48.670;9.242;2022-07-24T10:22:20;6.38;;;4.82;;
32663;SDS011;19847;48.670;9.242;2022-07-24T10:25:49;8.48;;;5.05;;
32663;SDS011;19847;48.670;9.242;2022-07-24T10:29:16;7.25;;;4.72;;
32663;SDS011;19847;48.670;9.242;2022-07-24T10:32:40;5.32;;;4.82;;
32663;SDS011;19847;48.670;9.242;2022-07-24T10:36:04;8.73;;;4.60;;
32663;SDS011;19847;48.670;9.242;2022-07-24T10:39:36;4.68;;;4.28;;
32663;SDS011;19847;48.670;9.242;2022-07-24T10:43:16;9.70;;;4.88;;
32663;SDS011;19847;48.670;9.242;2022-07-24T10:50:23;7.93;;;4.88;;
32663;SDS011;19847;48.670;9.242;2022-07-24T10:54:07;9.50;;;5.20;;
32663;SDS011;19847;48.670;9.242;2022-07-24T10:57:46;6.70;;;5.10;;
32663;SDS011;19847;48.670;9.242;2022-07-24T11:01:26;10.95;;;5.80;;
32663;SDS011;19847;48.670;9.242;2022-07-24T11:04:51;4.85;;;4.40;;
32663;SDS011;19847;48.670;9.242;2022-07-24T11:08:48;5.72;;;5.13;;
32663;SDS011;19847;48.670;9.242;2022-07-24T11:12:10;6.00;;;4.80;;
32663;SDS011;19847;48.670;9.242;2022-07-24T11:19:26;7.60;;;4.90;;
32663;SDS011;19847;48.670;9.242;2022-07-24T11:22:50;6.20;;;5.63;;
32663;SDS011;19847;48.670;9.242;2022-07-24T11:29:59;6.90;;;5.30;;
32663;SDS011;19847;48.670;9.242;2022-07-24T11:33:21;8.00;;;5.15;;
32663;SDS011;19847;48.670;9.242;2022-07-24T11:36:46;6.22;;;5.00;;
32663;SDS011;19847;48.670;9.242;2022-07-24T11:40:13;16.08;;;5.45;;
32663;SDS011;19847;48.670;9.242;2022-07-24T11:43:48;5.80;;;5.18;;
32663;SDS011;19847;48.670;9.242;2022-07-24T11:47:12;5.78;;;5.22;;
32663;SDS011;19847;48.670;9.242;2022-07-24T11:50:35;6.88;;;5.13;;
32663;SDS011;19847;48.670;9.242;2022-07-24T11:53:58;7.72;;;5.43;;
32663;SDS011;19847;48.670;9.242;2022-07-24T11:57:21;13.65;;;7.25;;
32663;SDS011;19847;48.670;9.242;2022-07-24T12:01:17;6.65;;;4.97;;
32663;SDS011;19847;48.670;9.242;2022-07-24T12:04:40;9.27;;;5.72;;
32663;SDS011;19847;48.670;9.242;2022-07-24T12:08:03;7.18;;;5.30;;
32663;SDS011;19847;48.670;9.242;2022-07-24T12:11:37;7.05;;;5.10;;
32663;SDS011;19847;48.670;9.242;2022-07-24T12:15:00;11.73;;;6.07;;
32663;SDS011;19847;48.670;9.242;2022-07-24T12:18:24;8.50;;;6.03;;
32663;SDS011;19847;48.670;9.242;2022-07-24T12:21:52;10.32;;;5.57;;
32663;SDS011;19847;48.670;9.242;2022-07-24T12:25:15;8.40;;;6.03;;
32663;SDS011;19847;48.670;9.242;2022-07-24T12:28:38;6.63;;;5.95;;
32663;SDS011;19847;48.670;9.242;2022-07-24T12:35:53;7.22;;;5.18;;
32663;SDS011;19847;48.670;9.242;2022-07-24T12:39:16;7.47;;;5.75;;
32663;SDS011;19847;48.670;9.242;2022-07-24T12:42:43;6.20;;;5.13;;
32663;SDS011;19847;48.670;9.242;2022-07-24T12:46:07;6.63;;;4.82;;
32663;SDS011;19847;48.670;9.242;2022-07-24T12:49:39;6.18;;;5.57;;
32663;SDS011;19847;48.670;9.242;2022-07-24T12:53:02;7.97;;;5.32;;
32663;SDS011;19847;48.670;9.242;2022-07-24T12:56:32;6.45;;;5.60;;
32663;SDS011;19847;48.670;9.242;2022-07-24T12:59:58;9.20;;;5.15;;
32663;SDS011;19847;48.670;9.242;2022-07-24T13:03:25;7.28;;;5.80;;
32663;SDS011;19847;48.670;9.242;2022-07-24T13:06:48;9.07;;;5.57;;
32663;SDS011;19847;48.670;9.242;2022-07-24T13:10:11;8.88;;;5.55;;
32663;SDS011;19847;48.670;9.242;2022-07-24T13:13:33;9.48;;;5.50;;
32663;SDS011;19847;48.670;9.242;2022-07-24T13:16:55;9.85;;;5.55;;
32663;SDS011;19847;48.670;9.242;2022-07-24T13:20:24;7.20;;;5.18;;
32663;SDS011;19847;48.670;9.242;2022-07-24T13:23:46;7.20;;;5.28;;
32663;SDS011;19847;48.670;9.242;2022-07-24T13:27:08;7.97;;;5.20;;
32663;SDS011;19847;48.670;9.242;2022-07-24T13:30:31;8.52;;;5.65;;
32663;SDS011;19847;48.670;9.242;2022-07-24T13:33:53;11.13;;;5.82;;
32663;SDS011;19847;48.670;9.242;2022-07-24T13:37:16;5.55;;;4.68;;
32663;SDS011;19847;48.670;9.242;2022-07-24T13:40:39;8.23;;;5.13;;
32663;SDS011;19847;48.670;9.242;2022-07-24T13:44:01;6.15;;;5.60;;
32663;SDS011;19847;48.670;9.242;2022-07-24T13:47:24;13.90;;;5.10;;
32663;SDS011;19847;48.670;9.242;2022-07-24T13:50:46;5.95;;;5.35;;
32663;SDS011;19847;48.670;9.242;2022-07-24T13:54:10;6.57;;;5.05;;
32663;SDS011;19847;48.670;9.242;2022-07-24T13:57:32;12.30;;;5.78;;
32663;SDS011;19847;48.670;9.242;2022-07-24T14:00:54;6.72;;;5.60;;
32663;SDS011;19847;48.670;9.242;2022-07-24T14:04:18;9.97;;;5.60;;
32663;SDS011;19847;48.670;9.242;2022-07-24T14:07:50;9.40;;;5.68;;
32663;SDS011;19847;48.670;9.242;2022-07-24T14:11:14;9.57;;;5.88;;
32663;SDS011;19847;48.670;9.242;2022-07-24T14:14:36;5.65;;;5.10;;
32663;SDS011;19847;48.670;9.242;2022-07-24T14:17:58;7.75;;;5.60;;
32663;SDS011;19847;48.670;9.242;2022-07-24T14:21:20;9.10;;;4.88;;
32663;SDS011;19847;48.670;9.242;2022-07-24T14:24:42;7.72;;;5.90;;
32663;SDS011;19847;48.670;9.242;2022-07-24T14:28:06;5.68;;;5.13;;
32663;SDS011;19847;48.670;9.242;2022-07-24T14:31:28;5.28;;;4.78;;
32663;SDS011;19847;48.670;9.242;2022-07-24T14:34:50;11.32;;;5.70;;
32663;SDS011;19847;48.670;9.242;2022-07-24T14:38:12;8.80;;;5.40;;
32663;SDS011;19847;48.670;9.242;2022-07-24T14:41:34;7.78;;;5.65;;
32663;SDS011;19847;48.670;9.242;2022-07-24T14:44:57;7.18;;;4.85;;
32663;SDS011;19847;48.670;9.242;2022-07-24T14:48:20;7.72;;;5.90;;
32663;SDS011;19847;48.670;9.242;2022-07-24T14:51:42;9.20;;;5.90;;
32663;SDS011;19847;48.670;9.242;2022-07-24T14:55:05;6.97;;;5.68;;
32663;SDS011;19847;48.670;9.242;2022-07-24T14:58:27;5.70;;;5.20;;
32663;SDS011;19847;48.670;9.242;2022-07-24T15:01:51;9.20;;;5.45;;
32663;SDS011;19847;48.670;9.242;2022-07-24T15:05:13;6.63;;;5.85;;
32663;SDS011;19847;48.670;9.242;2022-07-24T15:08:34;6.63;;;5.60;;
32663;SDS011;19847;48.670;9.242;2022-07-24T15:12:00;6.18;;;5.57;;
32663;SDS011;19847;48.670;9.242;2022-07-24T15:15:22;6.97;;;5.50;;
32663;SDS011;19847;48.670;9.242;2022-07-24T15:18:45;5.97;;;4.78;;
32663;SDS011;19847;48.670;9.242;2022-07-24T15:22:07;10.52;;;5.55;;
32663;SDS011;19847;48.670;9.242;2022-07-24T15:25:29;5.80;;;5.25;;
32663;SDS011;19847;48.670;9.242;2022-07-24T15:28:51;9.98;;;5.85;;
32663;SDS011;19847;48.670;9.242;2022-07-24T15:32:12;9.05;;;5.45;;
32663;SDS011;19847;48.670;9.242;2022-07-24T15:35:36;6.43;;;5.78;;
32663;SDS011;19847;48.670;9.242;2022-07-24T15:38:58;9.38;;;5.30;;
32663;SDS011;19847;48.670;9.242;2022-07-24T15:42:19;8.50;;;5.63;;
32663;SDS011;19847;48.670;9.242;2022-07-24T15:45:46;7.40;;;5.63;;
32663;SDS011;19847;48.670;9.242;2022-07-24T15:49:08;10.27;;;6.30;;
32663;SDS011;19847;48.670;9.242;2022-07-24T15:52:32;7.13;;;6.15;;
32663;SDS011;19847;48.670;9.242;2022-07-24T15:55:55;8.93;;;6.32;;
32663;SDS011;19847;48.670;9.242;2022-07-24T15:59:17;6.43;;;5.82;;
32663;SDS011;19847;48.670;9.242;2022-07-24T16:02:39;6.38;;;5.65;;
32663;SDS011;19847;48.670;9.242;2022-07-24T16:06:01;20.88;;;5.78;;
32663;SDS011;19847;48.670;9.242;2022-07-24T16:09:24;6.68;;;5.97;;
32663;SDS011;19847;48.670;9.242;2022-07-24T16:12:46;7.53;;;6.35;;
32663;SDS011;19847;48.670;9.242;2022-07-24T16:16:08;6.57;;;5.65;;
32663;SDS011;19847;48.670;9.242;2022-07-24T16:19:31;6.47;;;5.55;;
32663;SDS011;19847;48.670;9.242;2022-07-24T16:22:53;5.68;;;5.07;;
32663;SDS011;19847;48.670;9.242;2022-07-24T16:26:16;6.65;;;5.68;;
32663;SDS011;19847;48.670;9.242;2022-07-24T16:29:38;8.02;;;5.75;;
32663;SDS011;19847;48.670;9.242;2022-07-24T16:33:00;12.25;;;6.00;;
32663;SDS011;19847;48.670;9.242;2022-07-24T16:36:39;7.13;;;6.20;;
32663;SDS011;19847;48.670;9.242;2022-07-24T16:40:01;7.10;;;5.65;;
32663;SDS011;19847;48.670;9.242;2022-07-24T16:43:36;9.32;;;6.75;;
32663;SDS011;19847;48.670;9.242;2022-07-24T16:46:58;6.57;;;5.95;;
32663;SDS011;19847;48.670;9.242;2022-07-24T16:50:20;8.15;;;5.78;;
32663;SDS011;19847;48.670;9.242;2022-07-24T16:53:42;6.88;;;6.10;;
32663;SDS011;19847;48.670;9.242;2022-07-24T16:57:04;6.88;;;6.18;;
32663;SDS011;19847;48.670;9.242;2022-07-24T17:00:27;10.05;;;7.38;;
32663;SDS011;19847;48.670;9.242;2022-07-24T17:03:49;6.32;;;5.50;;
32663;SDS011;19847;48.670;9.242;2022-07-24T17:07:11;7.10;;;6.35;;
32663;SDS011;19847;48.670;9.242;2022-07-24T17:10:33;7.72;;;6.30;;
32663;SDS011;19847;48.670;9.242;2022-07-24T17:14:01;8.52;;;6.03;;
32663;SDS011;19847;48.670;9.242;2022-07-24T17:17:25;6.80;;;6.10;;
32663;SDS011;19847;48.670;9.242;2022-07-24T17:20:47;8.90;;;5.75;;
32663;SDS011;19847;48.670;9.242;2022-07-24T17:24:08;14.85;;;6.18;;
32663;SDS011;19847;48.670;9.242;2022-07-24T17:27:30;6.50;;;5.90;;
32663;SDS011;19847;48.670;9.242;2022-07-24T17:30:52;8.00;;;6.70;;
32663;SDS011;19847;48.670;9.242;2022-07-24T17:34:16;7.22;;;6.30;;
32663;SDS011;19847;48.670;9.242;2022-07-24T17:37:38;6.85;;;5.85;;
32663;SDS011;19847;48.670;9.242;2022-07-24T17:40:59;9.55;;;6.15;;
32663;SDS011;19847;48.670;9.242;2022-07-24T17:44:21;13.20;;;6.35;;
32663;SDS011;19847;48.670;9.242;2022-07-24T17:47:43;19.67;;;6.90;;
32663;SDS011;19847;48.670;9.242;2022-07-24T17:51:07;11.20;;;6.97;;
32663;SDS011;19847;48.670;9.242;2022-07-24T17:54:28;9.15;;;6.90;;
32663;SDS011;19847;48.670;9.242;2022-07-24T17:57:50;7.82;;;6.20;;
32663;SDS011;19847;48.670;9.242;2022-07-24T18:01:12;9.57;;;6.00;;
32663;SDS011;19847;48.670;9.242;2022-07-24T18:04:38;6.22;;;5.63;;
32663;SDS011;19847;48.670;9.242;2022-07-24T18:08:01;12.70;;;6.70;;
32663;SDS011;19847;48.670;9.242;2022-07-24T18:11:23;7.40;;;6.13;;
32663;SDS011;19847;48.670;9.242;2022-07-24T18:14:46;15.30;;;6.45;;
32663;SDS011;19847;48.670;9.242;2022-07-24T18:18:08;10.85;;;6.88;;
32663;SDS011;19847;48.670;9.242;2022-07-24T18:21:30;7.07;;;6.38;;
32663;SDS011;19847;48.670;9.242;2022-07-24T18:24:54;10.13;;;6.63;;
32663;SDS011;19847;48.670;9.242;2022-07-24T18:28:16;10.18;;;6.57;;
32663;SDS011;19847;48.670;9.242;2022-07-24T18:31:38;11.07;;;6.47;;
32663;SDS011;19847;48.670;9.242;2022-07-24T18:35:04;10.45;;;6.78;;
32663;SDS011;19847;48.670;9.242;2022-07-24T18:38:27;25.60;;;7.30;;
32663;SDS011;19847;48.670;9.242;2022-07-24T18:41:51;14.68;;;7.50;;
32663;SDS011;19847;48.670;9.242;2022-07-24T18:45:12;15.27;;;7.65;;
32663;SDS011;19847;48.670;9.242;2022-07-24T18:48:34;13.90;;;7.28;;
32663;SDS011;19847;48.670;9.242;2022-07-24T18:51:56;11.50;;;6.25;;
32663;SDS011;19847;48.670;9.242;2022-07-24T18:55:18;7.82;;;6.70;;
32663;SDS011;19847;48.670;9.242;2022-07-24T18:58:44;7.97;;;6.33;;
32663;SDS011;19847;48.670;9.242;2022-07-24T19:02:06;14.05;;;7.80;;
32663;SDS011;19847;48.670;9.242;2022-07-24T19:05:29;10.15;;;6.97;;
32663;SDS011;19847;48.670;9.242;2022-07-24T19:08:51;16.15;;;7.25;;
32663;SDS011;19847;48.670;9.242;2022-07-24T19:12:13;7.97;;;7.03;;
32663;SDS011;19847;48.670;9.242;2022-07-24T19:15:37;10.73;;;6.97;;
32663;SDS011;19847;48.670;9.242;2022-07-24T19:18:59;7.40;;;6.47;;
32663;SDS011;19847;48.670;9.242;2022-07-24T19:22:22;9.77;;;7.40;;
32663;SDS011;19847;48.670;9.242;2022-07-24T19:25:45;10.80;;;6.97;;
32663;SDS011;19847;48.670;9.242;2022-07-24T19:29:07;8.88;;;7.00;;
32663;SDS011;19847;48.670;9.242;2022-07-24T19:32:30;8.68;;;6.68;;
32663;SDS011;19847;48.670;9.242;2022-07-24T19:35:52;15.02;;;8.38;;
32663;SDS011;19847;48.670;9.242;2022-07-24T19:39:14;10.77;;;7.07;;
32663;SDS011;19847;48.670;9.242;2022-07-24T19:42:37;8.32;;;6.57;;
32663;SDS011;19847;48.670;9.242;2022-07-24T19:45:59;13.32;;;7.22;;
32663;SDS011;19847;48.670;9.242;2022-07-24T19:49:22;8.50;;;6.47;;
32663;SDS011;19847;48.670;9.242;2022-07-24T19:52:45;10.30;;;6.70;;
32663;SDS011;19847;48.670;9.242;2022-07-24T19:56:07;9.73;;;7.20;;
32663;SDS011;19847;48.670;9.242;2022-07-24T19:59:28;9.63;;;7.70;;
32663;SDS011;19847;48.670;9.242;2022-07-24T20:02:51;8.13;;;7.32;;
32663;SDS011;19847;48.670;9.242;2022-07-24T20:06:14;10.52;;;7.20;;
32663;SDS011;19847;48.670;9.242;2022-07-24T20:09:36;13.32;;;6.93;;
32663;SDS011;19847;48.670;9.242;2022-07-24T20:12:58;10.65;;;7.47;;
32663;SDS011;19847;48.670;9.242;2022-07-24T20:16:22;10.18;;;7.68;;
32663;SDS011;19847;48.670;9.242;2022-07-24T20:19:44;7.28;;;6.47;;
32663;SDS011;19847;48.670;9.242;2022-07-24T20:23:08;11.70;;;7.88;;
32663;SDS011;19847;48.670;9.242;2022-07-24T20:26:30;9.25;;;7.18;;
32663;SDS011;19847;48.670;9.242;2022-07-24T20:29:53;9.15;;;7.30;;
32663;SDS011;19847;48.670;9.242;2022-07-24T20:33:15;10.73;;;6.90;;